sensor_id;sensor_type;location;lat;lon;timestamp;P1;durP1;ratioP1;P2;durP2;ratioP2
1569;SDS011;778;50.120;8.698;2023-12-20T00:01:49;9.87;;;7.53;;
1569;SDS011;778;50.120;8.698;2023-12-20T00:04:17;9.90;;;8.00;;
1569;SDS011;778;50.120;8.698;2023-12-20T00:06:47;9.03;;;7.77;;
1569;SDS011;778;50.120;8.698;2023-12-20T00:09:16;8.03;;;7.23;;
1569;SDS011;778;50.120;8.698;2023-12-20T00:11:44;7.53;;;6.10;;
1569;SDS011;778;50.120;8.698;2023-12-20T00:14:12;6.53;;;5.93;;
1569;SDS011;778;50.120;8.698;2023-12-20T00:16:41;8.00;;;6.93;;
1569;SDS011;778;50.120;8.698;2023-12-20T00:19:09;7.23;;;6.53;;
1569;SDS011;778;50.120;8.698;2023-12-20T00:21:38;7.23;;;6.53;;
1569;SDS011;778;50.120;8.698;2023-12-20T00:24:08;6.93;;;6.30;;
1569;SDS011;778;50.120;8.698;2023-12-20T00:26:36;6.90;;;6.20;;
1569;SDS011;778;50.120;8.698;2023-12-20T00:29:05;8.00;;;6.20;;
1569;SDS011;778;50.120;8.698;2023-12-20T00:31:33;6.53;;;5.90;;
1569;SDS011;778;50.120;8.698;2023-12-20T00:34:02;5.50;;;5.00;;
1569;SDS011;778;50.120;8.698;2023-12-20T00:36:31;6.03;;;5.43;;
1569;SDS011;778;50.120;8.698;2023-12-20T00:38:59;6.80;;;5.70;;
1569;SDS011;778;50.120;8.698;2023-12-20T00:41:29;5.33;;;4.77;;
1569;SDS011;778;50.120;8.698;2023-12-20T00:43:57;5.17;;;4.67;;
1569;SDS011;778;50.120;8.698;2023-12-20T00:46:25;6.07;;;5.50;;
1569;SDS011;778;50.120;8.698;2023-12-20T00:48:54;5.87;;;5.27;;
1569;SDS011;778;50.120;8.698;2023-12-20T00:51:22;6.23;;;5.70;;
1569;SDS011;778;50.120;8.698;2023-12-20T00:53:51;7.13;;;6.37;;
1569;SDS011;778;50.120;8.698;2023-12-20T00:56:21;6.17;;;5.67;;
1569;SDS011;778;50.120;8.698;2023-12-20T00:58:51;6.93;;;6.23;;
1569;SDS011;778;50.120;8.698;2023-12-20T01:01:20;6.43;;;5.83;;
1569;SDS011;778;50.120;8.698;2023-12-20T01:03:49;6.13;;;5.53;;
1569;SDS011;778;50.120;8.698;2023-12-20T01:06:19;6.07;;;5.50;;
1569;SDS011;778;50.120;8.698;2023-12-20T01:08:47;6.20;;;5.60;;
1569;SDS011;778;50.120;8.698;2023-12-20T01:11:16;6.87;;;6.27;;
1569;SDS011;778;50.120;8.698;2023-12-20T01:13:44;5.20;;;4.70;;
1569;SDS011;778;50.120;8.698;2023-12-20T01:16:14;6.50;;;5.90;;
1569;SDS011;778;50.120;8.698;2023-12-20T01:18:42;6.50;;;5.90;;
1569;SDS011;778;50.120;8.698;2023-12-20T01:21:11;6.10;;;5.50;;
1569;SDS011;778;50.120;8.698;2023-12-20T01:23:40;7.13;;;5.70;;
1569;SDS011;778;50.120;8.698;2023-12-20T01:26:08;6.07;;;5.47;;
1569;SDS011;778;50.120;8.698;2023-12-20T01:28:37;6.00;;;5.50;;
1569;SDS011;778;50.120;8.698;2023-12-20T01:31:05;5.13;;;4.70;;
1569;SDS011;778;50.120;8.698;2023-12-20T01:33:35;5.27;;;4.87;;
1569;SDS011;778;50.120;8.698;2023-12-20T01:36:04;6.33;;;4.97;;
1569;SDS011;778;50.120;8.698;2023-12-20T01:38:32;6.13;;;5.53;;
1569;SDS011;778;50.120;8.698;2023-12-20T01:41:01;5.80;;;5.30;;
1569;SDS011;778;50.120;8.698;2023-12-20T01:43:29;6.70;;;5.47;;
1569;SDS011;778;50.120;8.698;2023-12-20T01:46:13;6.40;;;5.80;;
1569;SDS011;778;50.120;8.698;2023-12-20T01:48:43;6.73;;;5.70;;
1569;SDS011;778;50.120;8.698;2023-12-20T01:51:12;5.20;;;4.70;;
1569;SDS011;778;50.120;8.698;2023-12-20T01:53:41;4.90;;;4.50;;
1569;SDS011;778;50.120;8.698;2023-12-20T01:56:10;7.93;;;5.03;;
1569;SDS011;778;50.120;8.698;2023-12-20T01:58:41;6.33;;;5.60;;
1569;SDS011;778;50.120;8.698;2023-12-20T02:01:12;6.23;;;5.23;;
1569;SDS011;778;50.120;8.698;2023-12-20T02:03:41;5.77;;;5.27;;
1569;SDS011;778;50.120;8.698;2023-12-20T02:06:11;6.20;;;5.67;;
1569;SDS011;778;50.120;8.698;2023-12-20T02:08:40;5.83;;;5.33;;
1569;SDS011;778;50.120;8.698;2023-12-20T02:11:08;5.57;;;5.00;;
1569;SDS011;778;50.120;8.698;2023-12-20T02:13:38;6.93;;;5.33;;
1569;SDS011;778;50.120;8.698;2023-12-20T02:16:07;5.70;;;5.20;;
1569;SDS011;778;50.120;8.698;2023-12-20T02:18:36;5.60;;;5.10;;
1569;SDS011;778;50.120;8.698;2023-12-20T02:21:06;4.53;;;4.13;;
1569;SDS011;778;50.120;8.698;2023-12-20T02:23:35;4.87;;;4.47;;
1569;SDS011;778;50.120;8.698;2023-12-20T02:26:04;4.50;;;4.10;;
1569;SDS011;778;50.120;8.698;2023-12-20T02:28:33;6.67;;;5.40;;
1569;SDS011;778;50.120;8.698;2023-12-20T02:31:03;5.97;;;4.90;;
1569;SDS011;778;50.120;8.698;2023-12-20T02:33:31;4.97;;;4.40;;
1569;SDS011;778;50.120;8.698;2023-12-20T02:36:00;4.43;;;4.03;;
1569;SDS011;778;50.120;8.698;2023-12-20T02:38:28;4.80;;;4.40;;
1569;SDS011;778;50.120;8.698;2023-12-20T02:40:59;4.27;;;3.87;;
1569;SDS011;778;50.120;8.698;2023-12-20T02:43:27;4.90;;;4.50;;
1569;SDS011;778;50.120;8.698;2023-12-20T02:45:56;4.87;;;4.40;;
1569;SDS011;778;50.120;8.698;2023-12-20T02:48:24;3.80;;;3.50;;
1569;SDS011;778;50.120;8.698;2023-12-20T02:50:53;4.80;;;4.40;;
1569;SDS011;778;50.120;8.698;2023-12-20T02:53:22;4.47;;;4.07;;
1569;SDS011;778;50.120;8.698;2023-12-20T02:55:50;4.40;;;4.00;;
1569;SDS011;778;50.120;8.698;2023-12-20T02:58:20;4.63;;;4.20;;
1569;SDS011;778;50.120;8.698;2023-12-20T03:00:49;4.53;;;4.13;;
1569;SDS011;778;50.120;8.698;2023-12-20T03:03:17;4.90;;;4.40;;
1569;SDS011;778;50.120;8.698;2023-12-20T03:05:46;4.10;;;3.80;;
1569;SDS011;778;50.120;8.698;2023-12-20T03:08:14;4.70;;;4.30;;
1569;SDS011;778;50.120;8.698;2023-12-20T03:10:43;4.90;;;4.50;;
1569;SDS011;778;50.120;8.698;2023-12-20T03:13:11;5.03;;;4.63;;
1569;SDS011;778;50.120;8.698;2023-12-20T03:15:41;6.10;;;5.00;;
1569;SDS011;778;50.120;8.698;2023-12-20T03:18:10;3.90;;;3.60;;
1569;SDS011;778;50.120;8.698;2023-12-20T03:20:38;4.20;;;3.90;;
1569;SDS011;778;50.120;8.698;2023-12-20T03:23:08;5.57;;;4.40;;
1569;SDS011;778;50.120;8.698;2023-12-20T03:25:36;2.97;;;2.77;;
1569;SDS011;778;50.120;8.698;2023-12-20T03:28:05;2.90;;;2.70;;
1569;SDS011;778;50.120;8.698;2023-12-20T03:30:33;4.10;;;3.70;;
1569;SDS011;778;50.120;8.698;2023-12-20T03:33:03;3.80;;;3.50;;
1569;SDS011;778;50.120;8.698;2023-12-20T03:35:32;3.80;;;3.50;;
1569;SDS011;778;50.120;8.698;2023-12-20T03:38:00;4.57;;;4.10;;
1569;SDS011;778;50.120;8.698;2023-12-20T03:40:29;5.30;;;3.73;;
1569;SDS011;778;50.120;8.698;2023-12-20T03:42:57;4.50;;;4.10;;
1569;SDS011;778;50.120;8.698;2023-12-20T03:45:26;4.10;;;3.80;;
1569;SDS011;778;50.120;8.698;2023-12-20T03:47:54;4.67;;;4.23;;
1569;SDS011;778;50.120;8.698;2023-12-20T03:50:24;4.83;;;4.33;;
1569;SDS011;778;50.120;8.698;2023-12-20T03:52:54;4.40;;;4.10;;
1569;SDS011;778;50.120;8.698;2023-12-20T03:55:23;5.43;;;3.37;;
1569;SDS011;778;50.120;8.698;2023-12-20T03:57:51;4.77;;;4.37;;
1569;SDS011;778;50.120;8.698;2023-12-20T04:00:20;3.60;;;3.30;;
1569;SDS011;778;50.120;8.698;2023-12-20T04:02:48;2.90;;;2.70;;
1569;SDS011;778;50.120;8.698;2023-12-20T04:05:17;4.77;;;4.33;;
1569;SDS011;778;50.120;8.698;2023-12-20T04:07:47;4.10;;;3.67;;
1569;SDS011;778;50.120;8.698;2023-12-20T04:10:17;5.03;;;3.60;;
1569;SDS011;778;50.120;8.698;2023-12-20T04:12:45;3.80;;;3.50;;
1569;SDS011;778;50.120;8.698;2023-12-20T04:15:14;5.13;;;4.63;;
1569;SDS011;778;50.120;8.698;2023-12-20T04:17:43;5.90;;;4.90;;
1569;SDS011;778;50.120;8.698;2023-12-20T04:20:12;4.80;;;4.40;;
1569;SDS011;778;50.120;8.698;2023-12-20T04:22:41;4.90;;;4.30;;
1569;SDS011;778;50.120;8.698;2023-12-20T04:25:11;5.63;;;5.13;;
1569;SDS011;778;50.120;8.698;2023-12-20T04:27:39;6.07;;;4.50;;
1569;SDS011;778;50.120;8.698;2023-12-20T04:30:08;5.30;;;4.80;;
1569;SDS011;778;50.120;8.698;2023-12-20T04:32:38;4.93;;;4.40;;
1569;SDS011;778;50.120;8.698;2023-12-20T04:35:06;4.27;;;3.87;;
1569;SDS011;778;50.120;8.698;2023-12-20T04:37:36;5.10;;;3.80;;
1569;SDS011;778;50.120;8.698;2023-12-20T04:40:04;4.20;;;3.90;;
1569;SDS011;778;50.120;8.698;2023-12-20T04:42:36;4.77;;;4.13;;
1569;SDS011;778;50.120;8.698;2023-12-20T04:45:05;5.53;;;4.10;;
1569;SDS011;778;50.120;8.698;2023-12-20T04:47:34;5.07;;;4.60;;
1569;SDS011;778;50.120;8.698;2023-12-20T04:50:03;4.53;;;4.13;;
1569;SDS011;778;50.120;8.698;2023-12-20T04:52:33;4.83;;;3.60;;
1569;SDS011;778;50.120;8.698;2023-12-20T04:55:01;4.40;;;4.03;;
1569;SDS011;778;50.120;8.698;2023-12-20T04:57:30;4.23;;;3.77;;
1569;SDS011;778;50.120;8.698;2023-12-20T05:00:00;3.50;;;3.30;;
1569;SDS011;778;50.120;8.698;2023-12-20T05:02:29;3.97;;;3.57;;
1569;SDS011;778;50.120;8.698;2023-12-20T05:04:58;6.43;;;3.50;;
1569;SDS011;778;50.120;8.698;2023-12-20T05:07:26;3.83;;;3.43;;
1569;SDS011;778;50.120;8.698;2023-12-20T05:09:55;3.90;;;3.60;;
1569;SDS011;778;50.120;8.698;2023-12-20T05:12:23;4.97;;;3.93;;
1569;SDS011;778;50.120;8.698;2023-12-20T05:14:52;4.37;;;3.97;;
1569;SDS011;778;50.120;8.698;2023-12-20T05:17:22;4.17;;;3.77;;
1569;SDS011;778;50.120;8.698;2023-12-20T05:19:50;4.60;;;4.20;;
1569;SDS011;778;50.120;8.698;2023-12-20T05:22:19;4.40;;;4.00;;
1569;SDS011;778;50.120;8.698;2023-12-20T05:24:48;4.47;;;3.90;;
1569;SDS011;778;50.120;8.698;2023-12-20T05:27:16;4.60;;;4.20;;
1569;SDS011;778;50.120;8.698;2023-12-20T05:29:45;4.60;;;4.10;;
1569;SDS011;778;50.120;8.698;2023-12-20T05:32:13;5.70;;;5.20;;
1569;SDS011;778;50.120;8.698;2023-12-20T05:34:43;5.27;;;4.87;;
1569;SDS011;778;50.120;8.698;2023-12-20T05:37:11;5.80;;;5.27;;
1569;SDS011;778;50.120;8.698;2023-12-20T05:39:40;8.83;;;4.70;;
1569;SDS011;778;50.120;8.698;2023-12-20T05:42:08;4.43;;;3.70;;
1569;SDS011;778;50.120;8.698;2023-12-20T05:44:37;6.43;;;3.50;;
1569;SDS011;778;50.120;8.698;2023-12-20T05:47:05;3.47;;;3.10;;
1569;SDS011;778;50.120;8.698;2023-12-20T05:49:33;4.90;;;3.03;;
1569;SDS011;778;50.120;8.698;2023-12-20T05:52:04;6.20;;;3.40;;
1569;SDS011;778;50.120;8.698;2023-12-20T05:54:33;5.83;;;3.10;;
1569;SDS011;778;50.120;8.698;2023-12-20T05:57:01;9.30;;;3.80;;
1569;SDS011;778;50.120;8.698;2023-12-20T05:59:30;5.30;;;3.33;;
1569;SDS011;778;50.120;8.698;2023-12-20T06:01:59;3.93;;;3.30;;
1569;SDS011;778;50.120;8.698;2023-12-20T06:04:27;4.10;;;2.97;;
1569;SDS011;778;50.120;8.698;2023-12-20T06:06:56;5.17;;;3.13;;
1569;SDS011;778;50.120;8.698;2023-12-20T06:09:26;8.90;;;3.80;;
1569;SDS011;778;50.120;8.698;2023-12-20T06:11:57;5.77;;;2.83;;
1569;SDS011;778;50.120;8.698;2023-12-20T06:14:25;3.77;;;2.40;;
1569;SDS011;778;50.120;8.698;2023-12-20T06:16:54;3.00;;;2.30;;
1569;SDS011;778;50.120;8.698;2023-12-20T06:19:22;2.70;;;1.90;;
1569;SDS011;778;50.120;8.698;2023-12-20T06:21:51;7.47;;;3.23;;
1569;SDS011;778;50.120;8.698;2023-12-20T06:24:19;6.70;;;2.63;;
1569;SDS011;778;50.120;8.698;2023-12-20T06:26:49;5.80;;;2.10;;
1569;SDS011;778;50.120;8.698;2023-12-20T06:29:18;4.03;;;3.00;;
1569;SDS011;778;50.120;8.698;2023-12-20T06:31:46;5.80;;;2.33;;
1569;SDS011;778;50.120;8.698;2023-12-20T06:34:17;2.33;;;2.10;;
1569;SDS011;778;50.120;8.698;2023-12-20T06:36:46;6.07;;;2.30;;
1569;SDS011;778;50.120;8.698;2023-12-20T06:39:14;6.53;;;2.10;;
1569;SDS011;778;50.120;8.698;2023-12-20T06:41:43;8.83;;;1.90;;
1569;SDS011;778;50.120;8.698;2023-12-20T06:44:12;6.80;;;2.40;;
1569;SDS011;778;50.120;8.698;2023-12-20T06:46:41;8.83;;;2.07;;
1569;SDS011;778;50.120;8.698;2023-12-20T06:49:09;7.30;;;2.00;;
1569;SDS011;778;50.120;8.698;2023-12-20T06:51:38;3.33;;;2.03;;
1569;SDS011;778;50.120;8.698;2023-12-20T06:54:07;4.40;;;1.80;;
1569;SDS011;778;50.120;8.698;2023-12-20T06:56:35;3.20;;;1.90;;
1569;SDS011;778;50.120;8.698;2023-12-20T06:59:04;4.87;;;2.20;;
1569;SDS011;778;50.120;8.698;2023-12-20T07:01:34;3.17;;;1.67;;
1569;SDS011;778;50.120;8.698;2023-12-20T07:04:02;3.90;;;2.50;;
1569;SDS011;778;50.120;8.698;2023-12-20T07:06:31;5.13;;;2.40;;
1569;SDS011;778;50.120;8.698;2023-12-20T07:09:00;3.20;;;2.00;;
1569;SDS011;778;50.120;8.698;2023-12-20T07:11:28;4.30;;;2.30;;
1569;SDS011;778;50.120;8.698;2023-12-20T07:13:56;8.03;;;2.73;;
1569;SDS011;778;50.120;8.698;2023-12-20T07:16:25;4.03;;;2.57;;
1569;SDS011;778;50.120;8.698;2023-12-20T07:18:55;5.43;;;2.53;;
1569;SDS011;778;50.120;8.698;2023-12-20T07:21:24;4.10;;;2.13;;
1569;SDS011;778;50.120;8.698;2023-12-20T07:23:52;5.23;;;2.90;;
1569;SDS011;778;50.120;8.698;2023-12-20T07:26:20;3.80;;;3.00;;
1569;SDS011;778;50.120;8.698;2023-12-20T07:28:49;4.50;;;2.73;;
1569;SDS011;778;50.120;8.698;2023-12-20T07:31:18;5.93;;;2.47;;
1569;SDS011;778;50.120;8.698;2023-12-20T07:33:46;7.87;;;2.90;;
1569;SDS011;778;50.120;8.698;2023-12-20T07:36:16;8.40;;;2.73;;
1569;SDS011;778;50.120;8.698;2023-12-20T07:38:47;5.93;;;2.60;;
1569;SDS011;778;50.120;8.698;2023-12-20T07:41:16;7.83;;;2.60;;
1569;SDS011;778;50.120;8.698;2023-12-20T07:43:47;4.97;;;2.60;;
1569;SDS011;778;50.120;8.698;2023-12-20T07:46:16;3.90;;;2.37;;
1569;SDS011;778;50.120;8.698;2023-12-20T07:48:45;5.60;;;2.83;;
1569;SDS011;778;50.120;8.698;2023-12-20T07:51:14;4.27;;;2.33;;
1569;SDS011;778;50.120;8.698;2023-12-20T07:53:44;6.90;;;2.27;;
1569;SDS011;778;50.120;8.698;2023-12-20T07:56:15;8.53;;;2.97;;
1569;SDS011;778;50.120;8.698;2023-12-20T07:58:44;5.90;;;2.60;;
1569;SDS011;778;50.120;8.698;2023-12-20T08:01:19;5.40;;;2.50;;
1569;SDS011;778;50.120;8.698;2023-12-20T08:03:49;3.33;;;1.97;;
1569;SDS011;778;50.120;8.698;2023-12-20T08:06:18;10.27;;;2.73;;
1569;SDS011;778;50.120;8.698;2023-12-20T08:08:48;5.23;;;2.50;;
1569;SDS011;778;50.120;8.698;2023-12-20T08:11:27;5.17;;;2.20;;
1569;SDS011;778;50.120;8.698;2023-12-20T08:13:56;3.40;;;2.07;;
1569;SDS011;778;50.120;8.698;2023-12-20T08:16:25;4.17;;;2.20;;
1569;SDS011;778;50.120;8.698;2023-12-20T08:18:54;3.73;;;2.07;;
1569;SDS011;778;50.120;8.698;2023-12-20T08:21:22;2.80;;;1.90;;
1569;SDS011;778;50.120;8.698;2023-12-20T08:23:52;9.90;;;2.13;;
1569;SDS011;778;50.120;8.698;2023-12-20T08:26:21;2.63;;;1.97;;
1569;SDS011;778;50.120;8.698;2023-12-20T08:28:49;5.13;;;2.23;;
1569;SDS011;778;50.120;8.698;2023-12-20T08:31:18;6.37;;;2.13;;
1569;SDS011;778;50.120;8.698;2023-12-20T08:33:48;6.10;;;1.83;;
1569;SDS011;778;50.120;8.698;2023-12-20T08:36:18;4.83;;;1.80;;
1569;SDS011;778;50.120;8.698;2023-12-20T08:38:50;2.97;;;1.80;;
1569;SDS011;778;50.120;8.698;2023-12-20T08:41:20;4.67;;;1.57;;
1569;SDS011;778;50.120;8.698;2023-12-20T08:43:48;5.33;;;1.57;;
1569;SDS011;778;50.120;8.698;2023-12-20T08:46:17;8.70;;;2.10;;
1569;SDS011;778;50.120;8.698;2023-12-20T08:48:46;6.37;;;1.87;;
1569;SDS011;778;50.120;8.698;2023-12-20T08:51:14;4.23;;;2.40;;
1569;SDS011;778;50.120;8.698;2023-12-20T08:53:43;7.53;;;1.97;;
1569;SDS011;778;50.120;8.698;2023-12-20T08:56:12;3.80;;;2.43;;
1569;SDS011;778;50.120;8.698;2023-12-20T08:58:42;5.47;;;2.40;;
1569;SDS011;778;50.120;8.698;2023-12-20T09:01:12;5.60;;;2.57;;
1569;SDS011;778;50.120;8.698;2023-12-20T09:03:40;6.33;;;1.93;;
1569;SDS011;778;50.120;8.698;2023-12-20T09:06:10;5.03;;;2.13;;
1569;SDS011;778;50.120;8.698;2023-12-20T09:08:38;6.37;;;2.67;;
1569;SDS011;778;50.120;8.698;2023-12-20T09:11:07;4.60;;;2.67;;
1569;SDS011;778;50.120;8.698;2023-12-20T09:13:36;4.97;;;3.03;;
1569;SDS011;778;50.120;8.698;2023-12-20T09:16:06;8.00;;;2.73;;
1569;SDS011;778;50.120;8.698;2023-12-20T09:18:35;8.37;;;2.77;;
1569;SDS011;778;50.120;8.698;2023-12-20T09:21:03;6.60;;;2.70;;
1569;SDS011;778;50.120;8.698;2023-12-20T09:23:32;8.00;;;2.60;;
1569;SDS011;778;50.120;8.698;2023-12-20T09:26:00;4.40;;;2.53;;
1569;SDS011;778;50.120;8.698;2023-12-20T09:28:29;4.97;;;3.50;;
1569;SDS011;778;50.120;8.698;2023-12-20T09:30:59;10.93;;;4.10;;
1569;SDS011;778;50.120;8.698;2023-12-20T09:33:29;4.83;;;2.87;;
1569;SDS011;778;50.120;8.698;2023-12-20T09:35:57;5.83;;;2.43;;
1569;SDS011;778;50.120;8.698;2023-12-20T09:38:26;5.27;;;2.80;;
1569;SDS011;778;50.120;8.698;2023-12-20T09:40:55;7.33;;;2.17;;
1569;SDS011;778;50.120;8.698;2023-12-20T09:43:23;5.30;;;3.17;;
1569;SDS011;778;50.120;8.698;2023-12-20T09:45:55;6.77;;;2.50;;
1569;SDS011;778;50.120;8.698;2023-12-20T09:48:30;9.23;;;2.63;;
1569;SDS011;778;50.120;8.698;2023-12-20T09:51:00;16.30;;;2.83;;
1569;SDS011;778;50.120;8.698;2023-12-20T09:53:28;4.30;;;2.80;;
1569;SDS011;778;50.120;8.698;2023-12-20T09:55:58;11.40;;;2.57;;
1569;SDS011;778;50.120;8.698;2023-12-20T09:58:27;4.53;;;2.23;;
1569;SDS011;778;50.120;8.698;2023-12-20T10:00:56;4.80;;;2.30;;
1569;SDS011;778;50.120;8.698;2023-12-20T10:03:25;9.77;;;3.20;;
1569;SDS011;778;50.120;8.698;2023-12-20T10:05:56;5.27;;;2.73;;
1569;SDS011;778;50.120;8.698;2023-12-20T10:08:26;7.13;;;2.60;;
1569;SDS011;778;50.120;8.698;2023-12-20T10:10:56;6.60;;;3.03;;
1569;SDS011;778;50.120;8.698;2023-12-20T10:13:29;5.20;;;2.50;;
1569;SDS011;778;50.120;8.698;2023-12-20T10:15:57;4.60;;;2.50;;
1569;SDS011;778;50.120;8.698;2023-12-20T10:18:28;5.10;;;2.20;;
1569;SDS011;778;50.120;8.698;2023-12-20T10:21:06;3.67;;;2.10;;
1569;SDS011;778;50.120;8.698;2023-12-20T10:23:36;4.23;;;1.80;;
1569;SDS011;778;50.120;8.698;2023-12-20T10:26:07;4.07;;;1.97;;
1569;SDS011;778;50.120;8.698;2023-12-20T10:28:36;4.40;;;2.30;;
1569;SDS011;778;50.120;8.698;2023-12-20T10:31:05;6.47;;;3.10;;
1569;SDS011;778;50.120;8.698;2023-12-20T10:33:33;7.63;;;3.47;;
1569;SDS011;778;50.120;8.698;2023-12-20T10:36:02;4.40;;;3.00;;
1569;SDS011;778;50.120;8.698;2023-12-20T10:38:33;5.97;;;2.50;;
1569;SDS011;778;50.120;8.698;2023-12-20T10:41:03;7.40;;;2.80;;
1569;SDS011;778;50.120;8.698;2023-12-20T10:43:33;12.93;;;4.17;;
1569;SDS011;778;50.120;8.698;2023-12-20T10:46:03;5.67;;;2.57;;
1569;SDS011;778;50.120;8.698;2023-12-20T10:48:32;4.83;;;2.43;;
1569;SDS011;778;50.120;8.698;2023-12-20T10:51:03;10.40;;;2.73;;
1569;SDS011;778;50.120;8.698;2023-12-20T10:53:34;8.10;;;2.67;;
1569;SDS011;778;50.120;8.698;2023-12-20T10:56:04;5.47;;;2.80;;
1569;SDS011;778;50.120;8.698;2023-12-20T10:58:35;6.70;;;2.20;;
1569;SDS011;778;50.120;8.698;2023-12-20T11:01:09;7.50;;;3.17;;
1569;SDS011;778;50.120;8.698;2023-12-20T11:03:43;11.97;;;3.63;;
1569;SDS011;778;50.120;8.698;2023-12-20T11:06:23;4.20;;;2.40;;
1569;SDS011;778;50.120;8.698;2023-12-20T11:09:03;8.13;;;2.73;;
1569;SDS011;778;50.120;8.698;2023-12-20T11:11:45;6.80;;;2.53;;
1569;SDS011;778;50.120;8.698;2023-12-20T11:14:32;10.17;;;2.70;;
1569;SDS011;778;50.120;8.698;2023-12-20T11:17:09;7.20;;;3.20;;
1569;SDS011;778;50.120;8.698;2023-12-20T11:19:43;7.43;;;2.57;;
1569;SDS011;778;50.120;8.698;2023-12-20T11:22:34;10.40;;;2.60;;
1569;SDS011;778;50.120;8.698;2023-12-20T11:25:09;9.70;;;4.33;;
1569;SDS011;778;50.120;8.698;2023-12-20T11:27:40;4.03;;;2.00;;
1569;SDS011;778;50.120;8.698;2023-12-20T11:30:13;9.00;;;3.37;;
1569;SDS011;778;50.120;8.698;2023-12-20T11:32:43;7.80;;;2.93;;
1569;SDS011;778;50.120;8.698;2023-12-20T11:35:17;6.57;;;2.30;;
1569;SDS011;778;50.120;8.698;2023-12-20T11:37:47;5.93;;;2.57;;
1569;SDS011;778;50.120;8.698;2023-12-20T11:40:18;8.47;;;2.87;;
1569;SDS011;778;50.120;8.698;2023-12-20T11:42:49;8.03;;;2.63;;
1569;SDS011;778;50.120;8.698;2023-12-20T11:45:19;5.03;;;1.97;;
1569;SDS011;778;50.120;8.698;2023-12-20T11:47:51;8.93;;;2.40;;
1569;SDS011;778;50.120;8.698;2023-12-20T11:50:21;6.17;;;2.70;;
1569;SDS011;778;50.120;8.698;2023-12-20T11:52:51;7.10;;;2.90;;
1569;SDS011;778;50.120;8.698;2023-12-20T11:55:23;5.53;;;3.00;;
1569;SDS011;778;50.120;8.698;2023-12-20T11:57:52;9.00;;;2.40;;
1569;SDS011;778;50.120;8.698;2023-12-20T12:00:21;4.87;;;2.03;;
1569;SDS011;778;50.120;8.698;2023-12-20T12:02:56;10.10;;;3.43;;
1569;SDS011;778;50.120;8.698;2023-12-20T12:05:26;6.57;;;2.27;;
1569;SDS011;778;50.120;8.698;2023-12-20T12:07:54;7.63;;;2.83;;
1569;SDS011;778;50.120;8.698;2023-12-20T12:10:24;7.47;;;2.30;;
1569;SDS011;778;50.120;8.698;2023-12-20T12:12:53;2.40;;;2.20;;
1569;SDS011;778;50.120;8.698;2023-12-20T12:15:22;3.70;;;2.23;;
1569;SDS011;778;50.120;8.698;2023-12-20T12:17:54;7.63;;;2.50;;
1569;SDS011;778;50.120;8.698;2023-12-20T12:20:23;11.60;;;3.80;;
1569;SDS011;778;50.120;8.698;2023-12-20T12:22:58;4.30;;;2.07;;
1569;SDS011;778;50.120;8.698;2023-12-20T12:25:28;6.40;;;2.27;;
1569;SDS011;778;50.120;8.698;2023-12-20T12:27:59;5.30;;;2.77;;
1569;SDS011;778;50.120;8.698;2023-12-20T12:30:28;5.30;;;2.70;;
1569;SDS011;778;50.120;8.698;2023-12-20T12:33:04;4.47;;;2.07;;
1569;SDS011;778;50.120;8.698;2023-12-20T12:35:33;6.93;;;2.47;;
1569;SDS011;778;50.120;8.698;2023-12-20T12:38:02;8.43;;;2.77;;
1569;SDS011;778;50.120;8.698;2023-12-20T12:40:34;6.63;;;2.30;;
1569;SDS011;778;50.120;8.698;2023-12-20T12:43:03;6.20;;;2.10;;
1569;SDS011;778;50.120;8.698;2023-12-20T12:45:33;3.90;;;2.10;;
1569;SDS011;778;50.120;8.698;2023-12-20T12:48:01;7.00;;;2.00;;
1569;SDS011;778;50.120;8.698;2023-12-20T12:50:30;8.20;;;2.00;;
1569;SDS011;778;50.120;8.698;2023-12-20T12:52:59;7.90;;;2.47;;
1569;SDS011;778;50.120;8.698;2023-12-20T12:55:29;7.33;;;2.70;;
1569;SDS011;778;50.120;8.698;2023-12-20T12:57:59;4.37;;;1.83;;
1569;SDS011;778;50.120;8.698;2023-12-20T13:00:27;4.30;;;2.20;;
1569;SDS011;778;50.120;8.698;2023-12-20T13:02:56;7.70;;;2.43;;
1569;SDS011;778;50.120;8.698;2023-12-20T13:05:24;7.60;;;2.73;;
1569;SDS011;778;50.120;8.698;2023-12-20T13:07:54;7.30;;;2.90;;
1569;SDS011;778;50.120;8.698;2023-12-20T13:10:23;6.70;;;2.70;;
1569;SDS011;778;50.120;8.698;2023-12-20T13:12:52;5.70;;;2.13;;
1569;SDS011;778;50.120;8.698;2023-12-20T13:15:22;10.07;;;1.90;;
1569;SDS011;778;50.120;8.698;2023-12-20T13:17:50;4.43;;;2.57;;
1569;SDS011;778;50.120;8.698;2023-12-20T13:20:20;5.10;;;2.57;;
1569;SDS011;778;50.120;8.698;2023-12-20T13:22:48;4.60;;;2.53;;
1569;SDS011;778;50.120;8.698;2023-12-20T13:25:17;6.53;;;3.10;;
1569;SDS011;778;50.120;8.698;2023-12-20T13:27:45;5.30;;;2.50;;
1569;SDS011;778;50.120;8.698;2023-12-20T13:30:15;4.23;;;2.30;;
1569;SDS011;778;50.120;8.698;2023-12-20T13:32:46;7.10;;;3.00;;
1569;SDS011;778;50.120;8.698;2023-12-20T13:35:16;6.47;;;2.00;;
1569;SDS011;778;50.120;8.698;2023-12-20T13:37:44;6.63;;;2.40;;
1569;SDS011;778;50.120;8.698;2023-12-20T13:40:13;6.53;;;2.57;;
1569;SDS011;778;50.120;8.698;2023-12-20T13:42:42;6.00;;;2.20;;
1569;SDS011;778;50.120;8.698;2023-12-20T13:45:12;3.37;;;2.43;;
1569;SDS011;778;50.120;8.698;2023-12-20T13:47:40;3.67;;;2.70;;
1569;SDS011;778;50.120;8.698;2023-12-20T13:50:11;7.60;;;2.63;;
1569;SDS011;778;50.120;8.698;2023-12-20T13:52:40;6.27;;;3.00;;
1569;SDS011;778;50.120;8.698;2023-12-20T13:55:09;3.13;;;2.60;;
1569;SDS011;778;50.120;8.698;2023-12-20T13:57:37;6.37;;;3.90;;
1569;SDS011;778;50.120;8.698;2023-12-20T14:00:20;6.00;;;2.50;;
1569;SDS011;778;50.120;8.698;2023-12-20T14:02:49;3.97;;;2.53;;
1569;SDS011;778;50.120;8.698;2023-12-20T14:05:19;5.50;;;3.17;;
1569;SDS011;778;50.120;8.698;2023-12-20T14:07:54;7.07;;;3.47;;
1569;SDS011;778;50.120;8.698;2023-12-20T14:10:24;5.80;;;2.67;;
1569;SDS011;778;50.120;8.698;2023-12-20T14:12:54;7.07;;;2.50;;
1569;SDS011;778;50.120;8.698;2023-12-20T14:15:23;5.40;;;2.43;;
1569;SDS011;778;50.120;8.698;2023-12-20T14:17:52;6.87;;;2.40;;
1569;SDS011;778;50.120;8.698;2023-12-20T14:20:22;9.93;;;2.63;;
1569;SDS011;778;50.120;8.698;2023-12-20T14:22:51;7.50;;;2.60;;
1569;SDS011;778;50.120;8.698;2023-12-20T14:25:20;5.80;;;2.90;;
1569;SDS011;778;50.120;8.698;2023-12-20T14:27:50;6.73;;;2.67;;
1569;SDS011;778;50.120;8.698;2023-12-20T14:30:19;4.77;;;2.20;;
1569;SDS011;778;50.120;8.698;2023-12-20T14:32:48;4.93;;;3.00;;
1569;SDS011;778;50.120;8.698;2023-12-20T14:35:17;4.13;;;2.80;;
1569;SDS011;778;50.120;8.698;2023-12-20T14:37:47;6.27;;;2.23;;
1569;SDS011;778;50.120;8.698;2023-12-20T14:40:16;5.00;;;2.00;;
1569;SDS011;778;50.120;8.698;2023-12-20T14:42:45;4.67;;;2.70;;
1569;SDS011;778;50.120;8.698;2023-12-20T14:45:14;5.13;;;2.33;;
1569;SDS011;778;50.120;8.698;2023-12-20T14:47:42;8.13;;;3.23;;
1569;SDS011;778;50.120;8.698;2023-12-20T14:50:12;6.37;;;2.30;;
1569;SDS011;778;50.120;8.698;2023-12-20T14:52:45;8.33;;;3.83;;
1569;SDS011;778;50.120;8.698;2023-12-20T14:55:15;7.90;;;2.50;;
1569;SDS011;778;50.120;8.698;2023-12-20T14:57:44;3.07;;;1.83;;
1569;SDS011;778;50.120;8.698;2023-12-20T15:00:13;5.43;;;2.00;;
1569;SDS011;778;50.120;8.698;2023-12-20T15:02:44;8.63;;;3.70;;
1569;SDS011;778;50.120;8.698;2023-12-20T15:05:13;7.30;;;2.50;;
1569;SDS011;778;50.120;8.698;2023-12-20T15:07:42;3.40;;;2.67;;
1569;SDS011;778;50.120;8.698;2023-12-20T15:10:11;3.80;;;1.93;;
1569;SDS011;778;50.120;8.698;2023-12-20T15:12:41;3.73;;;1.73;;
1569;SDS011;778;50.120;8.698;2023-12-20T15:15:11;4.30;;;2.27;;
1569;SDS011;778;50.120;8.698;2023-12-20T15:17:40;5.30;;;2.07;;
1569;SDS011;778;50.120;8.698;2023-12-20T15:20:09;3.40;;;1.60;;
1569;SDS011;778;50.120;8.698;2023-12-20T15:22:40;5.50;;;2.07;;
1569;SDS011;778;50.120;8.698;2023-12-20T15:25:12;5.07;;;1.97;;
1569;SDS011;778;50.120;8.698;2023-12-20T15:27:47;5.17;;;2.23;;
1569;SDS011;778;50.120;8.698;2023-12-20T15:30:20;5.20;;;2.20;;
1569;SDS011;778;50.120;8.698;2023-12-20T15:32:50;3.60;;;2.10;;
1569;SDS011;778;50.120;8.698;2023-12-20T15:35:19;1.97;;;1.30;;
1569;SDS011;778;50.120;8.698;2023-12-20T15:37:48;2.77;;;2.20;;
1569;SDS011;778;50.120;8.698;2023-12-20T15:40:18;6.33;;;1.73;;
1569;SDS011;778;50.120;8.698;2023-12-20T15:42:48;5.57;;;2.20;;
1569;SDS011;778;50.120;8.698;2023-12-20T15:45:17;3.23;;;1.70;;